METAR Data
IDs: Format: Raw Decoded Include TAF

Data at: 1827 UTC 06 Jul 2020

EBBR 061820Z 32008KT 290V350 9999 FEW044 17/08 Q1021 NOSIG